sensor_id;sensor_type;location;lat;lon;timestamp;temperature;humidity
5576;DHT22;2810;50.134;8.626;2023-03-12T00:01:54;-0.30;99.90
5576;DHT22;2810;50.134;8.626;2023-03-12T00:04:20;0.50;99.90
5576;DHT22;2810;50.134;8.626;2023-03-12T00:06:45;-0.20;99.90
5576;DHT22;2810;50.134;8.626;2023-03-12T00:09:11;-0.20;99.90
5576;DHT22;2810;50.134;8.626;2023-03-12T00:11:36;-0.20;99.90
5576;DHT22;2810;50.134;8.626;2023-03-12T00:14:02;-0.30;99.90
5576;DHT22;2810;50.134;8.626;2023-03-12T00:16:27;-0.20;99.90
5576;DHT22;2810;50.134;8.626;2023-03-12T00:18:53;-0.30;99.90
5576;DHT22;2810;50.134;8.626;2023-03-12T00:21:19;-0.30;99.90
5576;DHT22;2810;50.134;8.626;2023-03-12T00:23:46;-0.30;99.90
5576;DHT22;2810;50.134;8.626;2023-03-12T00:26:12;-0.30;99.90
5576;DHT22;2810;50.134;8.626;2023-03-12T00:28:38;-0.10;99.90
5576;DHT22;2810;50.134;8.626;2023-03-12T00:31:11;-0.30;99.90
5576;DHT22;2810;50.134;8.626;2023-03-12T00:33:37;-0.40;99.90
5576;DHT22;2810;50.134;8.626;2023-03-12T00:36:03;-0.40;99.90
5576;DHT22;2810;50.134;8.626;2023-03-12T00:38:28;-0.30;99.90
5576;DHT22;2810;50.134;8.626;2023-03-12T00:40:54;-0.30;99.90
5576;DHT22;2810;50.134;8.626;2023-03-12T00:43:19;-0.30;99.90
5576;DHT22;2810;50.134;8.626;2023-03-12T00:45:44;-0.30;99.90
5576;DHT22;2810;50.134;8.626;2023-03-12T00:48:10;-0.30;99.90
5576;DHT22;2810;50.134;8.626;2023-03-12T00:50:35;-0.20;99.90
5576;DHT22;2810;50.134;8.626;2023-03-12T00:53:01;-0.10;99.90
5576;DHT22;2810;50.134;8.626;2023-03-12T00:55:26;-0.10;99.90
5576;DHT22;2810;50.134;8.626;2023-03-12T00:57:52;0.00;99.90
5576;DHT22;2810;50.134;8.626;2023-03-12T01:00:18;0.50;99.90
5576;DHT22;2810;50.134;8.626;2023-03-12T01:02:44;0.10;99.90
5576;DHT22;2810;50.134;8.626;2023-03-12T01:05:10;0.20;99.90
5576;DHT22;2810;50.134;8.626;2023-03-12T01:07:36;0.30;99.90
5576;DHT22;2810;50.134;8.626;2023-03-12T01:10:02;0.60;99.90
5576;DHT22;2810;50.134;8.626;2023-03-12T01:12:27;0.30;99.90
5576;DHT22;2810;50.134;8.626;2023-03-12T01:14:53;0.30;99.90
5576;DHT22;2810;50.134;8.626;2023-03-12T01:17:18;0.30;99.90
5576;DHT22;2810;50.134;8.626;2023-03-12T01:19:44;0.30;99.90
5576;DHT22;2810;50.134;8.626;2023-03-12T01:22:09;0.20;99.90
5576;DHT22;2810;50.134;8.626;2023-03-12T01:24:35;0.20;99.90
5576;DHT22;2810;50.134;8.626;2023-03-12T01:27:00;0.20;99.90
5576;DHT22;2810;50.134;8.626;2023-03-12T01:29:25;0.20;99.90
5576;DHT22;2810;50.134;8.626;2023-03-12T01:31:51;0.20;99.90
5576;DHT22;2810;50.134;8.626;2023-03-12T01:34:17;0.20;99.90
5576;DHT22;2810;50.134;8.626;2023-03-12T01:36:42;0.30;99.90
5576;DHT22;2810;50.134;8.626;2023-03-12T01:39:09;0.30;99.90
5576;DHT22;2810;50.134;8.626;2023-03-12T01:41:35;0.80;99.90
5576;DHT22;2810;50.134;8.626;2023-03-12T01:44:01;0.90;99.90
5576;DHT22;2810;50.134;8.626;2023-03-12T01:48:57;0.40;99.90
5576;DHT22;2810;50.134;8.626;2023-03-12T01:51:29;0.40;99.90
5576;DHT22;2810;50.134;8.626;2023-03-12T01:53:57;0.40;99.90
5576;DHT22;2810;50.134;8.626;2023-03-12T01:56:24;0.40;99.90
5576;DHT22;2810;50.134;8.626;2023-03-12T01:58:51;0.40;99.90
5576;DHT22;2810;50.134;8.626;2023-03-12T02:01:18;0.40;99.90
5576;DHT22;2810;50.134;8.626;2023-03-12T02:03:44;0.30;99.90
5576;DHT22;2810;50.134;8.626;2023-03-12T02:06:12;0.40;99.90
5576;DHT22;2810;50.134;8.626;2023-03-12T02:08:38;0.30;99.90
5576;DHT22;2810;50.134;8.626;2023-03-12T02:11:05;0.30;99.90
5576;DHT22;2810;50.134;8.626;2023-03-12T02:13:31;0.00;99.90
5576;DHT22;2810;50.134;8.626;2023-03-12T02:15:56;0.30;99.90
5576;DHT22;2810;50.134;8.626;2023-03-12T02:18:22;0.30;99.90
5576;DHT22;2810;50.134;8.626;2023-03-12T02:23:51;0.20;99.90
5576;DHT22;2810;50.134;8.626;2023-03-12T02:26:19;0.20;99.90
5576;DHT22;2810;50.134;8.626;2023-03-12T02:28:45;0.20;99.90
5576;DHT22;2810;50.134;8.626;2023-03-12T02:31:13;0.30;99.90
5576;DHT22;2810;50.134;8.626;2023-03-12T02:33:39;0.70;99.90
5576;DHT22;2810;50.134;8.626;2023-03-12T02:36:05;0.80;99.90
5576;DHT22;2810;50.134;8.626;2023-03-12T02:38:32;0.40;99.90
5576;DHT22;2810;50.134;8.626;2023-03-12T02:40:59;0.40;99.90
5576;DHT22;2810;50.134;8.626;2023-03-12T02:43:25;0.40;99.90
5576;DHT22;2810;50.134;8.626;2023-03-12T02:45:51;0.30;99.90
5576;DHT22;2810;50.134;8.626;2023-03-12T02:48:16;0.40;99.90
5576;DHT22;2810;50.134;8.626;2023-03-12T02:50:42;0.40;99.90
5576;DHT22;2810;50.134;8.626;2023-03-12T02:53:07;0.50;99.90
5576;DHT22;2810;50.134;8.626;2023-03-12T02:55:33;0.50;99.90
5576;DHT22;2810;50.134;8.626;2023-03-12T02:57:58;0.50;99.90
5576;DHT22;2810;50.134;8.626;2023-03-12T03:00:24;0.60;99.90
5576;DHT22;2810;50.134;8.626;2023-03-12T03:02:49;0.90;99.90
5576;DHT22;2810;50.134;8.626;2023-03-12T03:05:15;0.60;99.90
5576;DHT22;2810;50.134;8.626;2023-03-12T03:07:40;0.60;99.90
5576;DHT22;2810;50.134;8.626;2023-03-12T03:10:06;1.00;99.90
5576;DHT22;2810;50.134;8.626;2023-03-12T03:12:34;0.60;99.90
5576;DHT22;2810;50.134;8.626;2023-03-12T03:15:00;0.50;99.90
5576;DHT22;2810;50.134;8.626;2023-03-12T03:17:26;0.40;99.90
5576;DHT22;2810;50.134;8.626;2023-03-12T03:19:51;0.40;99.90
5576;DHT22;2810;50.134;8.626;2023-03-12T03:22:17;0.30;99.90
5576;DHT22;2810;50.134;8.626;2023-03-12T03:24:43;0.30;99.90
5576;DHT22;2810;50.134;8.626;2023-03-12T03:27:08;0.20;99.90
5576;DHT22;2810;50.134;8.626;2023-03-12T03:29:33;0.30;99.90
5576;DHT22;2810;50.134;8.626;2023-03-12T03:31:59;0.30;99.90
5576;DHT22;2810;50.134;8.626;2023-03-12T03:34:24;0.30;99.90
5576;DHT22;2810;50.134;8.626;2023-03-12T03:36:50;0.30;99.90
5576;DHT22;2810;50.134;8.626;2023-03-12T03:39:15;0.30;99.90
5576;DHT22;2810;50.134;8.626;2023-03-12T03:41:41;0.30;99.90
5576;DHT22;2810;50.134;8.626;2023-03-12T03:44:06;0.60;99.90
5576;DHT22;2810;50.134;8.626;2023-03-12T03:46:32;0.40;99.90
5576;DHT22;2810;50.134;8.626;2023-03-12T03:48:59;0.80;99.90
5576;DHT22;2810;50.134;8.626;2023-03-12T03:51:25;1.00;99.90
5576;DHT22;2810;50.134;8.626;2023-03-12T03:53:50;0.50;99.90
5576;DHT22;2810;50.134;8.626;2023-03-12T03:56:16;0.50;99.90
5576;DHT22;2810;50.134;8.626;2023-03-12T03:58:41;0.50;99.90
5576;DHT22;2810;50.134;8.626;2023-03-12T04:01:07;0.50;99.90
5576;DHT22;2810;50.134;8.626;2023-03-12T04:03:33;0.50;99.90
5576;DHT22;2810;50.134;8.626;2023-03-12T04:05:59;0.40;99.90
5576;DHT22;2810;50.134;8.626;2023-03-12T04:08:25;0.50;99.90
5576;DHT22;2810;50.134;8.626;2023-03-12T04:10:51;0.40;99.90
5576;DHT22;2810;50.134;8.626;2023-03-12T04:13:17;0.40;99.90
5576;DHT22;2810;50.134;8.626;2023-03-12T04:15:53;0.40;99.90
5576;DHT22;2810;50.134;8.626;2023-03-12T04:18:18;0.40;99.90
5576;DHT22;2810;50.134;8.626;2023-03-12T04:20:44;0.50;99.90
5576;DHT22;2810;50.134;8.626;2023-03-12T04:23:10;1.30;99.90
5576;DHT22;2810;50.134;8.626;2023-03-12T04:25:35;0.60;99.90
5576;DHT22;2810;50.134;8.626;2023-03-12T04:28:01;0.70;99.90
5576;DHT22;2810;50.134;8.626;2023-03-12T04:30:26;1.10;99.90
5576;DHT22;2810;50.134;8.626;2023-03-12T04:32:52;0.70;99.90
5576;DHT22;2810;50.134;8.626;2023-03-12T04:35:17;0.80;99.90
5576;DHT22;2810;50.134;8.626;2023-03-12T04:37:43;1.20;99.90
5576;DHT22;2810;50.134;8.626;2023-03-12T04:40:09;0.70;99.90
5576;DHT22;2810;50.134;8.626;2023-03-12T04:42:34;0.80;99.90
5576;DHT22;2810;50.134;8.626;2023-03-12T04:45:00;1.30;99.90
5576;DHT22;2810;50.134;8.626;2023-03-12T04:47:25;1.60;99.90
5576;DHT22;2810;50.134;8.626;2023-03-12T04:49:51;1.00;99.90
5576;DHT22;2810;50.134;8.626;2023-03-12T04:52:16;0.80;99.90
5576;DHT22;2810;50.134;8.626;2023-03-12T04:54:42;0.80;99.90
5576;DHT22;2810;50.134;8.626;2023-03-12T04:57:07;0.90;99.90
5576;DHT22;2810;50.134;8.626;2023-03-12T04:59:33;0.90;99.90
5576;DHT22;2810;50.134;8.626;2023-03-12T05:01:58;0.90;99.90
5576;DHT22;2810;50.134;8.626;2023-03-12T05:04:24;1.00;99.90
5576;DHT22;2810;50.134;8.626;2023-03-12T05:06:49;0.90;99.90
5576;DHT22;2810;50.134;8.626;2023-03-12T05:09:15;0.80;99.90
5576;DHT22;2810;50.134;8.626;2023-03-12T05:11:40;0.90;99.90
5576;DHT22;2810;50.134;8.626;2023-03-12T05:14:05;0.90;99.90
5576;DHT22;2810;50.134;8.626;2023-03-12T05:16:31;0.80;99.90
5576;DHT22;2810;50.134;8.626;2023-03-12T05:18:56;0.80;99.90
5576;DHT22;2810;50.134;8.626;2023-03-12T05:21:22;0.80;99.90
5576;DHT22;2810;50.134;8.626;2023-03-12T05:23:47;2.00;99.90
5576;DHT22;2810;50.134;8.626;2023-03-12T05:26:21;0.80;99.90
5576;DHT22;2810;50.134;8.626;2023-03-12T05:28:46;0.80;99.90
5576;DHT22;2810;50.134;8.626;2023-03-12T05:31:12;0.90;99.90
5576;DHT22;2810;50.134;8.626;2023-03-12T05:33:38;1.20;99.90
5576;DHT22;2810;50.134;8.626;2023-03-12T05:36:03;1.00;99.90
5576;DHT22;2810;50.134;8.626;2023-03-12T05:38:29;0.90;99.90
5576;DHT22;2810;50.134;8.626;2023-03-12T05:40:55;1.00;99.90
5576;DHT22;2810;50.134;8.626;2023-03-12T05:43:21;1.00;99.90
5576;DHT22;2810;50.134;8.626;2023-03-12T05:45:47;1.10;99.90
5576;DHT22;2810;50.134;8.626;2023-03-12T05:48:13;1.10;99.90
5576;DHT22;2810;50.134;8.626;2023-03-12T05:50:38;1.10;99.90
5576;DHT22;2810;50.134;8.626;2023-03-12T05:53:04;1.20;99.90
5576;DHT22;2810;50.134;8.626;2023-03-12T05:55:29;1.20;99.90
5576;DHT22;2810;50.134;8.626;2023-03-12T05:57:58;1.20;99.90
5576;DHT22;2810;50.134;8.626;2023-03-12T06:00:23;1.10;99.90
5576;DHT22;2810;50.134;8.626;2023-03-12T06:02:49;1.20;99.90
5576;DHT22;2810;50.134;8.626;2023-03-12T06:05:14;1.70;99.90
5576;DHT22;2810;50.134;8.626;2023-03-12T06:07:40;1.30;99.90
5576;DHT22;2810;50.134;8.626;2023-03-12T06:10:05;1.60;99.90
5576;DHT22;2810;50.134;8.626;2023-03-12T06:12:31;2.00;99.90
5576;DHT22;2810;50.134;8.626;2023-03-12T06:14:57;1.40;99.90
5576;DHT22;2810;50.134;8.626;2023-03-12T06:17:22;2.10;99.90
5576;DHT22;2810;50.134;8.626;2023-03-12T06:19:51;2.20;99.90
5576;DHT22;2810;50.134;8.626;2023-03-12T06:22:19;1.70;99.90
5576;DHT22;2810;50.134;8.626;2023-03-12T06:24:45;1.70;99.90
5576;DHT22;2810;50.134;8.626;2023-03-12T06:27:12;2.40;99.90
5576;DHT22;2810;50.134;8.626;2023-03-12T06:29:37;2.40;99.90
5576;DHT22;2810;50.134;8.626;2023-03-12T06:32:03;2.40;99.90
5576;DHT22;2810;50.134;8.626;2023-03-12T06:34:28;1.70;99.90
5576;DHT22;2810;50.134;8.626;2023-03-12T06:36:54;2.40;99.90
5576;DHT22;2810;50.134;8.626;2023-03-12T06:39:19;2.20;99.90
5576;DHT22;2810;50.134;8.626;2023-03-12T06:41:45;1.80;99.90
5576;DHT22;2810;50.134;8.626;2023-03-12T06:44:10;2.00;99.90
5576;DHT22;2810;50.134;8.626;2023-03-12T06:46:36;2.70;99.90
5576;DHT22;2810;50.134;8.626;2023-03-12T06:49:01;2.00;99.90
5576;DHT22;2810;50.134;8.626;2023-03-12T06:51:27;2.00;99.90
5576;DHT22;2810;50.134;8.626;2023-03-12T06:53:52;2.00;99.90
5576;DHT22;2810;50.134;8.626;2023-03-12T06:56:18;2.00;99.90
5576;DHT22;2810;50.134;8.626;2023-03-12T06:58:43;2.00;99.90
5576;DHT22;2810;50.134;8.626;2023-03-12T07:01:09;2.60;99.90
5576;DHT22;2810;50.134;8.626;2023-03-12T07:03:34;2.50;99.90
5576;DHT22;2810;50.134;8.626;2023-03-12T07:06:00;2.70;99.90
5576;DHT22;2810;50.134;8.626;2023-03-12T07:08:26;2.00;99.90
5576;DHT22;2810;50.134;8.626;2023-03-12T07:10:55;2.00;99.90
5576;DHT22;2810;50.134;8.626;2023-03-12T07:13:20;2.80;99.90
5576;DHT22;2810;50.134;8.626;2023-03-12T07:15:46;2.10;99.90
5576;DHT22;2810;50.134;8.626;2023-03-12T07:18:12;2.10;99.90
5576;DHT22;2810;50.134;8.626;2023-03-12T07:20:38;2.10;99.90
5576;DHT22;2810;50.134;8.626;2023-03-12T07:23:04;2.20;99.90
5576;DHT22;2810;50.134;8.626;2023-03-12T07:25:30;2.70;99.90
5576;DHT22;2810;50.134;8.626;2023-03-12T07:27:56;2.40;99.90
5576;DHT22;2810;50.134;8.626;2023-03-12T07:30:21;2.70;99.90
5576;DHT22;2810;50.134;8.626;2023-03-12T07:32:47;2.50;99.90
5576;DHT22;2810;50.134;8.626;2023-03-12T07:35:12;3.10;99.90
5576;DHT22;2810;50.134;8.626;2023-03-12T07:37:38;2.70;99.90
5576;DHT22;2810;50.134;8.626;2023-03-12T07:40:03;2.90;99.90
5576;DHT22;2810;50.134;8.626;2023-03-12T07:42:32;2.70;99.90
5576;DHT22;2810;50.134;8.626;2023-03-12T07:44:58;2.60;99.90
5576;DHT22;2810;50.134;8.626;2023-03-12T07:47:23;3.50;99.90
5576;DHT22;2810;50.134;8.626;2023-03-12T07:49:49;2.60;99.90
5576;DHT22;2810;50.134;8.626;2023-03-12T07:52:14;3.50;99.90
5576;DHT22;2810;50.134;8.626;2023-03-12T07:54:42;3.00;99.90
5576;DHT22;2810;50.134;8.626;2023-03-12T07:57:07;2.50;99.90
5576;DHT22;2810;50.134;8.626;2023-03-12T07:59:33;2.50;99.90
5576;DHT22;2810;50.134;8.626;2023-03-12T08:01:58;2.40;99.90
5576;DHT22;2810;50.134;8.626;2023-03-12T08:04:24;2.40;99.90
5576;DHT22;2810;50.134;8.626;2023-03-12T08:06:49;2.40;99.90
5576;DHT22;2810;50.134;8.626;2023-03-12T08:09:15;2.30;99.90
5576;DHT22;2810;50.134;8.626;2023-03-12T08:11:41;3.50;99.90
5576;DHT22;2810;50.134;8.626;2023-03-12T08:14:06;2.20;99.90
5576;DHT22;2810;50.134;8.626;2023-03-12T08:16:32;2.80;99.90
5576;DHT22;2810;50.134;8.626;2023-03-12T08:18:57;2.00;99.90
5576;DHT22;2810;50.134;8.626;2023-03-12T08:21:23;2.20;99.90
5576;DHT22;2810;50.134;8.626;2023-03-12T08:23:48;2.00;99.90
5576;DHT22;2810;50.134;8.626;2023-03-12T08:26:15;2.30;99.90
5576;DHT22;2810;50.134;8.626;2023-03-12T08:28:40;1.90;99.90
5576;DHT22;2810;50.134;8.626;2023-03-12T08:31:06;1.90;99.90
5576;DHT22;2810;50.134;8.626;2023-03-12T08:33:31;2.50;99.90
5576;DHT22;2810;50.134;8.626;2023-03-12T08:35:57;1.80;99.90
5576;DHT22;2810;50.134;8.626;2023-03-12T08:38:22;1.30;99.90
5576;DHT22;2810;50.134;8.626;2023-03-12T08:40:57;1.70;99.90
5576;DHT22;2810;50.134;8.626;2023-03-12T08:43:23;1.80;99.90
5576;DHT22;2810;50.134;8.626;2023-03-12T08:45:58;1.30;99.90
5576;DHT22;2810;50.134;8.626;2023-03-12T08:48:24;1.70;99.90
5576;DHT22;2810;50.134;8.626;2023-03-12T08:50:50;1.70;99.90
5576;DHT22;2810;50.134;8.626;2023-03-12T08:53:16;1.70;99.90
5576;DHT22;2810;50.134;8.626;2023-03-12T08:55:42;1.70;99.90
5576;DHT22;2810;50.134;8.626;2023-03-12T08:58:07;1.80;99.90
5576;DHT22;2810;50.134;8.626;2023-03-12T09:00:33;1.80;99.90
5576;DHT22;2810;50.134;8.626;2023-03-12T09:02:58;1.80;99.90
5576;DHT22;2810;50.134;8.626;2023-03-12T09:05:24;1.90;99.90
5576;DHT22;2810;50.134;8.626;2023-03-12T09:07:49;1.90;99.90
5576;DHT22;2810;50.134;8.626;2023-03-12T09:10:15;1.80;99.90
5576;DHT22;2810;50.134;8.626;2023-03-12T09:12:41;2.00;99.90
5576;DHT22;2810;50.134;8.626;2023-03-12T09:15:07;2.00;99.90
5576;DHT22;2810;50.134;8.626;2023-03-12T09:17:32;2.00;99.90
5576;DHT22;2810;50.134;8.626;2023-03-12T09:19:58;2.00;99.90
5576;DHT22;2810;50.134;8.626;2023-03-12T09:22:24;1.90;99.90
5576;DHT22;2810;50.134;8.626;2023-03-12T09:24:50;2.00;99.90
5576;DHT22;2810;50.134;8.626;2023-03-12T09:27:15;2.00;99.90
5576;DHT22;2810;50.134;8.626;2023-03-12T09:29:41;2.80;99.90
5576;DHT22;2810;50.134;8.626;2023-03-12T09:32:06;2.70;99.90
5576;DHT22;2810;50.134;8.626;2023-03-12T09:34:33;2.00;99.90
5576;DHT22;2810;50.134;8.626;2023-03-12T09:36:59;2.00;99.90
5576;DHT22;2810;50.134;8.626;2023-03-12T09:39:24;2.00;99.90
5576;DHT22;2810;50.134;8.626;2023-03-12T09:41:50;2.90;99.90
5576;DHT22;2810;50.134;8.626;2023-03-12T09:44:23;2.20;99.90
5576;DHT22;2810;50.134;8.626;2023-03-12T09:46:58;2.30;99.90
5576;DHT22;2810;50.134;8.626;2023-03-12T09:49:34;2.30;99.90
5576;DHT22;2810;50.134;8.626;2023-03-12T09:52:02;2.30;99.90
5576;DHT22;2810;50.134;8.626;2023-03-12T09:54:35;2.30;99.90
5576;DHT22;2810;50.134;8.626;2023-03-12T09:57:02;2.30;99.90
5576;DHT22;2810;50.134;8.626;2023-03-12T09:59:32;2.30;99.90
5576;DHT22;2810;50.134;8.626;2023-03-12T10:02:00;3.00;99.90
5576;DHT22;2810;50.134;8.626;2023-03-12T10:04:35;2.30;99.90
5576;DHT22;2810;50.134;8.626;2023-03-12T10:07:07;2.30;99.90
5576;DHT22;2810;50.134;8.626;2023-03-12T10:12:16;2.40;99.90
5576;DHT22;2810;50.134;8.626;2023-03-12T10:15:02;2.50;99.90
5576;DHT22;2810;50.134;8.626;2023-03-12T10:17:42;2.60;99.90
5576;DHT22;2810;50.134;8.626;2023-03-12T10:22:55;2.60;99.90
5576;DHT22;2810;50.134;8.626;2023-03-12T10:28:18;2.50;99.90
5576;DHT22;2810;50.134;8.626;2023-03-12T10:30:54;2.60;99.90
5576;DHT22;2810;50.134;8.626;2023-03-12T10:33:21;2.40;99.90
5576;DHT22;2810;50.134;8.626;2023-03-12T10:35:48;2.70;99.90
5576;DHT22;2810;50.134;8.626;2023-03-12T10:38:19;3.30;99.90
5576;DHT22;2810;50.134;8.626;2023-03-12T10:40:48;2.70;99.90
5576;DHT22;2810;50.134;8.626;2023-03-12T10:43:13;2.70;99.90
5576;DHT22;2810;50.134;8.626;2023-03-12T10:45:56;2.80;99.90
5576;DHT22;2810;50.134;8.626;2023-03-12T10:48:25;2.90;99.90
5576;DHT22;2810;50.134;8.626;2023-03-12T10:51:04;3.00;99.90
5576;DHT22;2810;50.134;8.626;2023-03-12T10:53:31;3.00;99.90
5576;DHT22;2810;50.134;8.626;2023-03-12T10:56:02;3.10;99.90
5576;DHT22;2810;50.134;8.626;2023-03-12T10:58:35;3.20;99.90
5576;DHT22;2810;50.134;8.626;2023-03-12T11:01:01;3.30;99.90
5576;DHT22;2810;50.134;8.626;2023-03-12T11:03:27;3.30;99.90
5576;DHT22;2810;50.134;8.626;2023-03-12T11:05:54;3.40;99.90
5576;DHT22;2810;50.134;8.626;2023-03-12T11:08:24;3.40;99.90
5576;DHT22;2810;50.134;8.626;2023-03-12T11:10:51;3.50;99.90
5576;DHT22;2810;50.134;8.626;2023-03-12T11:13:34;3.60;99.90
5576;DHT22;2810;50.134;8.626;2023-03-12T11:16:01;3.70;99.90
5576;DHT22;2810;50.134;8.626;2023-03-12T11:18:28;3.80;99.90
5576;DHT22;2810;50.134;8.626;2023-03-12T11:20:56;3.90;99.90
5576;DHT22;2810;50.134;8.626;2023-03-12T11:23:23;3.80;99.90
5576;DHT22;2810;50.134;8.626;2023-03-12T11:25:54;3.80;99.90
5576;DHT22;2810;50.134;8.626;2023-03-12T11:28:21;3.80;99.90
5576;DHT22;2810;50.134;8.626;2023-03-12T11:30:48;3.80;99.90
5576;DHT22;2810;50.134;8.626;2023-03-12T11:33:14;3.90;99.90
5576;DHT22;2810;50.134;8.626;2023-03-12T11:36:23;4.00;99.90
5576;DHT22;2810;50.134;8.626;2023-03-12T11:38:39;4.10;99.90
5576;DHT22;2810;50.134;8.626;2023-03-12T11:41:12;4.20;99.90
5576;DHT22;2810;50.134;8.626;2023-03-12T11:48:48;4.50;99.90
5576;DHT22;2810;50.134;8.626;2023-03-12T11:53:49;4.70;99.90
5576;DHT22;2810;50.134;8.626;2023-03-12T12:14:28;5.50;99.90
5576;DHT22;2810;50.134;8.626;2023-03-12T12:19:34;5.60;99.90
5576;DHT22;2810;50.134;8.626;2023-03-12T12:22:24;5.70;99.90
5576;DHT22;2810;50.134;8.626;2023-03-12T12:24:55;6.00;99.90
5576;DHT22;2810;50.134;8.626;2023-03-12T12:27:35;6.10;99.90
5576;DHT22;2810;50.134;8.626;2023-03-12T12:30:16;6.10;99.90
5576;DHT22;2810;50.134;8.626;2023-03-12T12:35:37;6.50;99.90
5576;DHT22;2810;50.134;8.626;2023-03-12T12:40:35;6.40;99.90
5576;DHT22;2810;50.134;8.626;2023-03-12T12:45:48;6.40;99.90
5576;DHT22;2810;50.134;8.626;2023-03-12T12:48:19;7.20;99.90
5576;DHT22;2810;50.134;8.626;2023-03-12T12:50:45;6.60;99.90
5576;DHT22;2810;50.134;8.626;2023-03-12T12:56:00;7.30;99.90
5576;DHT22;2810;50.134;8.626;2023-03-12T12:58:39;7.50;99.90
5576;DHT22;2810;50.134;8.626;2023-03-12T13:01:08;7.60;99.90
5576;DHT22;2810;50.134;8.626;2023-03-12T13:03:34;7.60;99.90
5576;DHT22;2810;50.134;8.626;2023-03-12T13:06:02;7.60;99.90
5576;DHT22;2810;50.134;8.626;2023-03-12T13:08:31;7.80;99.90
5576;DHT22;2810;50.134;8.626;2023-03-12T13:10:58;8.10;99.90
5576;DHT22;2810;50.134;8.626;2023-03-12T13:13:23;7.70;99.90
5576;DHT22;2810;50.134;8.626;2023-03-12T13:15:49;7.60;99.90
5576;DHT22;2810;50.134;8.626;2023-03-12T13:28:31;7.90;99.90
5576;DHT22;2810;50.134;8.626;2023-03-12T13:31:00;7.90;99.90
5576;DHT22;2810;50.134;8.626;2023-03-12T13:33:39;7.90;99.90
5576;DHT22;2810;50.134;8.626;2023-03-12T13:38:51;8.10;99.90
5576;DHT22;2810;50.134;8.626;2023-03-12T13:43:55;8.40;99.90
5576;DHT22;2810;50.134;8.626;2023-03-12T13:46:34;8.50;99.90
5576;DHT22;2810;50.134;8.626;2023-03-12T13:49:02;8.40;99.90
5576;DHT22;2810;50.134;8.626;2023-03-12T13:51:29;8.30;99.90
5576;DHT22;2810;50.134;8.626;2023-03-12T13:53:57;8.30;99.90
5576;DHT22;2810;50.134;8.626;2023-03-12T13:56:29;8.40;99.90
5576;DHT22;2810;50.134;8.626;2023-03-12T13:58:59;8.40;99.90
5576;DHT22;2810;50.134;8.626;2023-03-12T14:01:27;8.00;99.90
5576;DHT22;2810;50.134;8.626;2023-03-12T14:04:00;8.50;99.90
5576;DHT22;2810;50.134;8.626;2023-03-12T14:06:28;8.20;99.90
5576;DHT22;2810;50.134;8.626;2023-03-12T14:11:48;8.40;99.90
5576;DHT22;2810;50.134;8.626;2023-03-12T14:16:43;8.40;99.90
5576;DHT22;2810;50.134;8.626;2023-03-12T14:19:15;8.40;99.90
5576;DHT22;2810;50.134;8.626;2023-03-12T14:21:42;8.40;99.90
5576;DHT22;2810;50.134;8.626;2023-03-12T14:24:19;8.40;99.90
5576;DHT22;2810;50.134;8.626;2023-03-12T14:26:47;8.40;99.90
5576;DHT22;2810;50.134;8.626;2023-03-12T14:31:44;8.30;99.90
5576;DHT22;2810;50.134;8.626;2023-03-12T14:34:16;8.30;99.90
5576;DHT22;2810;50.134;8.626;2023-03-12T14:36:57;8.30;99.90
5576;DHT22;2810;50.134;8.626;2023-03-12T14:39:36;8.30;99.90
5576;DHT22;2810;50.134;8.626;2023-03-12T14:42:04;8.20;99.90
5576;DHT22;2810;50.134;8.626;2023-03-12T14:44:30;8.10;99.90
5576;DHT22;2810;50.134;8.626;2023-03-12T14:47:00;8.10;99.90
5576;DHT22;2810;50.134;8.626;2023-03-12T14:49:26;8.10;99.90
5576;DHT22;2810;50.134;8.626;2023-03-12T14:51:52;8.00;99.90
5576;DHT22;2810;50.134;8.626;2023-03-12T14:54:18;8.10;99.90
5576;DHT22;2810;50.134;8.626;2023-03-12T14:56:43;8.10;99.90
5576;DHT22;2810;50.134;8.626;2023-03-12T15:02:10;8.00;99.90
5576;DHT22;2810;50.134;8.626;2023-03-12T15:04:36;8.00;99.90
5576;DHT22;2810;50.134;8.626;2023-03-12T15:07:02;8.00;99.90
5576;DHT22;2810;50.134;8.626;2023-03-12T15:09:29;8.10;99.90
5576;DHT22;2810;50.134;8.626;2023-03-12T15:11:56;8.10;99.90
5576;DHT22;2810;50.134;8.626;2023-03-12T15:14:23;8.10;99.90
5576;DHT22;2810;50.134;8.626;2023-03-12T15:16:49;8.50;99.90
5576;DHT22;2810;50.134;8.626;2023-03-12T15:19:16;8.10;99.90
5576;DHT22;2810;50.134;8.626;2023-03-12T15:21:42;8.10;99.90
5576;DHT22;2810;50.134;8.626;2023-03-12T15:24:10;8.10;99.90
5576;DHT22;2810;50.134;8.626;2023-03-12T15:26:37;8.20;99.90
5576;DHT22;2810;50.134;8.626;2023-03-12T15:31:54;8.40;99.90
5576;DHT22;2810;50.134;8.626;2023-03-12T15:36:51;8.40;99.90
5576;DHT22;2810;50.134;8.626;2023-03-12T15:39:29;8.50;99.90
5576;DHT22;2810;50.134;8.626;2023-03-12T15:41:59;8.50;99.90
5576;DHT22;2810;50.134;8.626;2023-03-12T15:44:26;8.60;99.90
5576;DHT22;2810;50.134;8.626;2023-03-12T15:46:53;8.50;99.90
5576;DHT22;2810;50.134;8.626;2023-03-12T15:49:20;8.40;99.90
5576;DHT22;2810;50.134;8.626;2023-03-12T15:51:57;8.40;99.90
5576;DHT22;2810;50.134;8.626;2023-03-12T15:54:23;8.30;99.90
5576;DHT22;2810;50.134;8.626;2023-03-12T15:56:49;8.30;99.90
5576;DHT22;2810;50.134;8.626;2023-03-12T16:01:44;8.40;99.90
5576;DHT22;2810;50.134;8.626;2023-03-12T16:04:10;8.30;99.90
5576;DHT22;2810;50.134;8.626;2023-03-12T16:06:36;8.60;99.90
5576;DHT22;2810;50.134;8.626;2023-03-12T16:09:01;8.30;99.90
5576;DHT22;2810;50.134;8.626;2023-03-12T16:11:31;8.40;99.90
5576;DHT22;2810;50.134;8.626;2023-03-12T16:14:00;8.40;99.90
5576;DHT22;2810;50.134;8.626;2023-03-12T16:16:27;8.40;99.90
5576;DHT22;2810;50.134;8.626;2023-03-12T16:18:53;8.40;99.90
5576;DHT22;2810;50.134;8.626;2023-03-12T16:21:18;8.50;99.90
5576;DHT22;2810;50.134;8.626;2023-03-12T16:23:44;8.50;99.90
5576;DHT22;2810;50.134;8.626;2023-03-12T16:26:10;8.40;99.90
5576;DHT22;2810;50.134;8.626;2023-03-12T16:28:35;8.40;99.90
5576;DHT22;2810;50.134;8.626;2023-03-12T16:31:01;8.40;99.90
5576;DHT22;2810;50.134;8.626;2023-03-12T16:33:27;8.40;99.90
5576;DHT22;2810;50.134;8.626;2023-03-12T16:35:52;8.40;99.90
5576;DHT22;2810;50.134;8.626;2023-03-12T16:38:18;8.40;99.90
5576;DHT22;2810;50.134;8.626;2023-03-12T16:40:45;8.40;99.90
5576;DHT22;2810;50.134;8.626;2023-03-12T16:43:21;8.40;99.90
5576;DHT22;2810;50.134;8.626;2023-03-12T16:45:48;8.40;99.90
5576;DHT22;2810;50.134;8.626;2023-03-12T16:48:15;8.80;99.90
5576;DHT22;2810;50.134;8.626;2023-03-12T16:50:44;8.40;99.90
5576;DHT22;2810;50.134;8.626;2023-03-12T16:53:10;8.40;99.90
5576;DHT22;2810;50.134;8.626;2023-03-12T16:55:54;8.40;99.90
5576;DHT22;2810;50.134;8.626;2023-03-12T16:58:20;8.40;99.90
5576;DHT22;2810;50.134;8.626;2023-03-12T17:00:46;8.40;99.90
5576;DHT22;2810;50.134;8.626;2023-03-12T17:03:31;8.40;99.90
5576;DHT22;2810;50.134;8.626;2023-03-12T17:05:57;8.40;99.90
5576;DHT22;2810;50.134;8.626;2023-03-12T17:08:23;8.40;99.90
5576;DHT22;2810;50.134;8.626;2023-03-12T17:10:49;8.30;99.90
5576;DHT22;2810;50.134;8.626;2023-03-12T17:13:21;8.30;99.90
5576;DHT22;2810;50.134;8.626;2023-03-12T17:15:47;8.30;99.90
5576;DHT22;2810;50.134;8.626;2023-03-12T17:18:12;8.40;99.90
5576;DHT22;2810;50.134;8.626;2023-03-12T17:20:38;8.30;99.90
5576;DHT22;2810;50.134;8.626;2023-03-12T17:23:04;8.30;99.90
5576;DHT22;2810;50.134;8.626;2023-03-12T17:25:31;8.40;99.90
5576;DHT22;2810;50.134;8.626;2023-03-12T17:27:57;8.30;99.90
5576;DHT22;2810;50.134;8.626;2023-03-12T17:30:23;8.30;99.90
5576;DHT22;2810;50.134;8.626;2023-03-12T17:32:49;8.40;99.90
5576;DHT22;2810;50.134;8.626;2023-03-12T17:35:15;8.30;99.90
5576;DHT22;2810;50.134;8.626;2023-03-12T17:37:40;8.40;99.90
5576;DHT22;2810;50.134;8.626;2023-03-12T17:40:06;8.70;99.90
5576;DHT22;2810;50.134;8.626;2023-03-12T17:42:32;8.40;99.90
5576;DHT22;2810;50.134;8.626;2023-03-12T17:44:59;8.80;99.90